sensor_id;sensor_type;location;lat;lon;timestamp;P1;durP1;ratioP1;P2;durP2;ratioP2
76298;SDS011;65236;42.332;23.550;2022-12-18T00:00:43;457.83;;;422.58;;
76298;SDS011;65236;42.332;23.550;2022-12-18T00:03:11;466.30;;;430.67;;
76298;SDS011;65236;42.332;23.550;2022-12-18T00:05:45;453.98;;;418.88;;
76298;SDS011;65236;42.332;23.550;2022-12-18T00:08:14;462.67;;;427.23;;
76298;SDS011;65236;42.332;23.550;2022-12-18T00:10:40;461.85;;;426.55;;
76298;SDS011;65236;42.332;23.550;2022-12-18T00:13:06;477.02;;;440.27;;
76298;SDS011;65236;42.332;23.550;2022-12-18T00:15:33;479.33;;;442.53;;
76298;SDS011;65236;42.332;23.550;2022-12-18T00:17:59;470.92;;;434.05;;
76298;SDS011;65236;42.332;23.550;2022-12-18T00:20:25;463.43;;;427.87;;
76298;SDS011;65236;42.332;23.550;2022-12-18T00:22:51;456.00;;;421.70;;
76298;SDS011;65236;42.332;23.550;2022-12-18T00:25:17;437.98;;;405.13;;
76298;SDS011;65236;42.332;23.550;2022-12-18T00:27:42;421.70;;;390.67;;
76298;SDS011;65236;42.332;23.550;2022-12-18T00:30:08;507.20;;;468.83;;
76298;SDS011;65236;42.332;23.550;2022-12-18T00:32:34;483.20;;;446.50;;
76298;SDS011;65236;42.332;23.550;2022-12-18T00:35:00;469.83;;;433.88;;
76298;SDS011;65236;42.332;23.550;2022-12-18T00:37:25;434.27;;;401.73;;
76298;SDS011;65236;42.332;23.550;2022-12-18T00:39:50;436.00;;;402.63;;
76298;SDS011;65236;42.332;23.550;2022-12-18T00:42:16;432.90;;;399.47;;
76298;SDS011;65236;42.332;23.550;2022-12-18T00:45:00;456.35;;;421.63;;
76298;SDS011;65236;42.332;23.550;2022-12-18T00:47:25;434.03;;;400.40;;
76298;SDS011;65236;42.332;23.550;2022-12-18T00:49:50;467.03;;;430.93;;
76298;SDS011;65236;42.332;23.550;2022-12-18T00:52:16;453.42;;;418.77;;
76298;SDS011;65236;42.332;23.550;2022-12-18T00:54:41;463.87;;;428.60;;
76298;SDS011;65236;42.332;23.550;2022-12-18T00:57:07;446.87;;;413.30;;
76298;SDS011;65236;42.332;23.550;2022-12-18T00:59:32;482.80;;;445.93;;
76298;SDS011;65236;42.332;23.550;2022-12-18T01:01:58;486.60;;;449.83;;
76298;SDS011;65236;42.332;23.550;2022-12-18T01:04:23;493.73;;;456.57;;
76298;SDS011;65236;42.332;23.550;2022-12-18T01:06:49;503.17;;;464.73;;
76298;SDS011;65236;42.332;23.550;2022-12-18T01:09:14;489.17;;;451.53;;
76298;SDS011;65236;42.332;23.550;2022-12-18T01:11:40;432.23;;;398.83;;
76298;SDS011;65236;42.332;23.550;2022-12-18T01:14:05;470.17;;;434.07;;
76298;SDS011;65236;42.332;23.550;2022-12-18T01:16:31;477.40;;;441.92;;
76298;SDS011;65236;42.332;23.550;2022-12-18T01:18:56;407.37;;;378.27;;
76298;SDS011;65236;42.332;23.550;2022-12-18T01:21:22;432.60;;;400.43;;
76298;SDS011;65236;42.332;23.550;2022-12-18T01:23:52;489.17;;;452.67;;
76298;SDS011;65236;42.332;23.550;2022-12-18T01:26:18;460.27;;;426.27;;
76298;SDS011;65236;42.332;23.550;2022-12-18T01:28:44;492.25;;;455.85;;
76298;SDS011;65236;42.332;23.550;2022-12-18T01:33:35;484.20;;;447.90;;
76298;SDS011;65236;42.332;23.550;2022-12-18T01:36:00;496.47;;;458.63;;
76298;SDS011;65236;42.332;23.550;2022-12-18T01:38:26;518.93;;;479.07;;
76298;SDS011;65236;42.332;23.550;2022-12-18T01:40:57;487.63;;;450.75;;
76298;SDS011;65236;42.332;23.550;2022-12-18T01:43:40;500.13;;;462.88;;
76298;SDS011;65236;42.332;23.550;2022-12-18T01:46:24;505.85;;;468.10;;
76298;SDS011;65236;42.332;23.550;2022-12-18T01:48:52;513.03;;;474.38;;
76298;SDS011;65236;42.332;23.550;2022-12-18T01:51:21;536.80;;;495.60;;
76298;SDS011;65236;42.332;23.550;2022-12-18T01:53:47;535.17;;;493.75;;
76298;SDS011;65236;42.332;23.550;2022-12-18T01:56:15;595.95;;;551.50;;
76298;SDS011;65236;42.332;23.550;2022-12-18T01:58:54;441.48;;;408.70;;
76298;SDS011;65236;42.332;23.550;2022-12-18T02:01:24;389.50;;;361.07;;
76298;SDS011;65236;42.332;23.550;2022-12-18T02:03:50;449.45;;;415.88;;
76298;SDS011;65236;42.332;23.550;2022-12-18T02:09:17;412.33;;;382.27;;
76298;SDS011;65236;42.332;23.550;2022-12-18T02:11:49;487.75;;;449.48;;
76298;SDS011;65236;42.332;23.550;2022-12-18T02:17:09;458.63;;;423.37;;
76298;SDS011;65236;42.332;23.550;2022-12-18T02:22:38;411.17;;;381.73;;
76298;SDS011;65236;42.332;23.550;2022-12-18T02:27:55;441.30;;;408.42;;
76298;SDS011;65236;42.332;23.550;2022-12-18T02:30:24;472.07;;;436.57;;
76298;SDS011;65236;42.332;23.550;2022-12-18T02:32:51;462.55;;;427.88;;
76298;SDS011;65236;42.332;23.550;2022-12-18T02:35:22;507.00;;;468.63;;
76298;SDS011;65236;42.332;23.550;2022-12-18T02:37:49;469.90;;;434.63;;
76298;SDS011;65236;42.332;23.550;2022-12-18T02:40:16;417.25;;;386.75;;
76298;SDS011;65236;42.332;23.550;2022-12-18T02:42:43;505.90;;;467.37;;
76298;SDS011;65236;42.332;23.550;2022-12-18T02:45:08;495.75;;;457.30;;
76298;SDS011;65236;42.332;23.550;2022-12-18T02:47:36;427.87;;;394.63;;
76298;SDS011;65236;42.332;23.550;2022-12-18T02:50:13;448.60;;;413.02;;
76298;SDS011;65236;42.332;23.550;2022-12-18T02:52:44;404.10;;;373.67;;
76298;SDS011;65236;42.332;23.550;2022-12-18T02:57:48;463.97;;;428.27;;
76298;SDS011;65236;42.332;23.550;2022-12-18T03:00:19;462.40;;;426.20;;
76298;SDS011;65236;42.332;23.550;2022-12-18T03:03:05;456.33;;;421.02;;
76298;SDS011;65236;42.332;23.550;2022-12-18T03:05:44;451.07;;;417.27;;
76298;SDS011;65236;42.332;23.550;2022-12-18T03:08:19;457.58;;;423.40;;
76298;SDS011;65236;42.332;23.550;2022-12-18T03:10:49;439.42;;;406.88;;
76298;SDS011;65236;42.332;23.550;2022-12-18T03:13:23;443.20;;;410.33;;
76298;SDS011;65236;42.332;23.550;2022-12-18T03:15:52;450.98;;;417.10;;
76298;SDS011;65236;42.332;23.550;2022-12-18T03:18:22;447.83;;;414.33;;
76298;SDS011;65236;42.332;23.550;2022-12-18T03:20:51;447.10;;;413.23;;
76298;SDS011;65236;42.332;23.550;2022-12-18T03:23:20;439.58;;;405.75;;
76298;SDS011;65236;42.332;23.550;2022-12-18T03:25:52;490.30;;;452.42;;
76298;SDS011;65236;42.332;23.550;2022-12-18T03:28:21;451.20;;;416.20;;
76298;SDS011;65236;42.332;23.550;2022-12-18T03:30:49;444.30;;;410.07;;
76298;SDS011;65236;42.332;23.550;2022-12-18T03:33:29;438.13;;;404.70;;
76298;SDS011;65236;42.332;23.550;2022-12-18T03:36:03;490.38;;;451.80;;
76298;SDS011;65236;42.332;23.550;2022-12-18T03:38:28;463.80;;;428.13;;
76298;SDS011;65236;42.332;23.550;2022-12-18T03:46:20;486.47;;;449.03;;
76298;SDS011;65236;42.332;23.550;2022-12-18T03:48:55;452.33;;;417.58;;
76298;SDS011;65236;42.332;23.550;2022-12-18T03:51:27;484.85;;;447.15;;
76298;SDS011;65236;42.332;23.550;2022-12-18T03:54:06;486.83;;;449.70;;
76298;SDS011;65236;42.332;23.550;2022-12-18T03:56:35;471.33;;;434.90;;
76298;SDS011;65236;42.332;23.550;2022-12-18T03:59:05;436.03;;;402.60;;
76298;SDS011;65236;42.332;23.550;2022-12-18T04:01:33;472.92;;;437.10;;
76298;SDS011;65236;42.332;23.550;2022-12-18T04:04:02;459.63;;;424.80;;
76298;SDS011;65236;42.332;23.550;2022-12-18T04:06:29;452.48;;;419.08;;
76298;SDS011;65236;42.332;23.550;2022-12-18T04:08:56;433.17;;;401.73;;
76298;SDS011;65236;42.332;23.550;2022-12-18T04:11:22;429.27;;;398.13;;
76298;SDS011;65236;42.332;23.550;2022-12-18T04:13:48;441.02;;;409.05;;
76298;SDS011;65236;42.332;23.550;2022-12-18T04:16:13;430.90;;;399.47;;
76298;SDS011;65236;42.332;23.550;2022-12-18T04:18:38;441.77;;;409.13;;
76298;SDS011;65236;42.332;23.550;2022-12-18T04:21:04;463.97;;;429.60;;
76298;SDS011;65236;42.332;23.550;2022-12-18T04:23:32;459.05;;;424.98;;
76298;SDS011;65236;42.332;23.550;2022-12-18T04:25:58;473.60;;;437.47;;
76298;SDS011;65236;42.332;23.550;2022-12-18T04:28:23;493.43;;;455.70;;
76298;SDS011;65236;42.332;23.550;2022-12-18T04:30:48;450.58;;;417.02;;
76298;SDS011;65236;42.332;23.550;2022-12-18T04:33:14;456.23;;;423.03;;
76298;SDS011;65236;42.332;23.550;2022-12-18T04:35:41;476.47;;;441.40;;
76298;SDS011;65236;42.332;23.550;2022-12-18T04:38:07;478.15;;;443.00;;
76298;SDS011;65236;42.332;23.550;2022-12-18T04:40:36;480.52;;;445.33;;
76298;SDS011;65236;42.332;23.550;2022-12-18T04:43:02;483.80;;;448.35;;
76298;SDS011;65236;42.332;23.550;2022-12-18T04:45:29;475.52;;;440.65;;
76298;SDS011;65236;42.332;23.550;2022-12-18T04:47:57;471.53;;;437.03;;
76298;SDS011;65236;42.332;23.550;2022-12-18T04:50:26;494.10;;;457.98;;
76298;SDS011;65236;42.332;23.550;2022-12-18T04:52:51;485.10;;;448.52;;
76298;SDS011;65236;42.332;23.550;2022-12-18T04:55:17;497.13;;;459.30;;
76298;SDS011;65236;42.332;23.550;2022-12-18T04:57:42;494.77;;;457.17;;
76298;SDS011;65236;42.332;23.550;2022-12-18T05:00:08;479.60;;;444.13;;
76298;SDS011;65236;42.332;23.550;2022-12-18T05:02:34;460.13;;;426.58;;
76298;SDS011;65236;42.332;23.550;2022-12-18T05:04:59;461.73;;;428.13;;
76298;SDS011;65236;42.332;23.550;2022-12-18T05:07:25;465.17;;;431.20;;
76298;SDS011;65236;42.332;23.550;2022-12-18T05:09:50;467.50;;;433.05;;
76298;SDS011;65236;42.332;23.550;2022-12-18T05:12:16;443.77;;;411.67;;
76298;SDS011;65236;42.332;23.550;2022-12-18T05:14:41;415.23;;;385.87;;
76298;SDS011;65236;42.332;23.550;2022-12-18T05:17:07;459.50;;;425.23;;
76298;SDS011;65236;42.332;23.550;2022-12-18T05:19:32;433.10;;;400.50;;
76298;SDS011;65236;42.332;23.550;2022-12-18T05:21:57;440.75;;;408.00;;
76298;SDS011;65236;42.332;23.550;2022-12-18T05:24:23;459.23;;;425.57;;
76298;SDS011;65236;42.332;23.550;2022-12-18T05:26:48;406.70;;;378.60;;
76298;SDS011;65236;42.332;23.550;2022-12-18T05:29:14;381.92;;;356.35;;
76298;SDS011;65236;42.332;23.550;2022-12-18T05:31:39;485.83;;;450.30;;
76298;SDS011;65236;42.332;23.550;2022-12-18T05:34:05;447.20;;;415.20;;
76298;SDS011;65236;42.332;23.550;2022-12-18T05:36:31;461.50;;;428.25;;
76298;SDS011;65236;42.332;23.550;2022-12-18T05:38:57;504.60;;;467.90;;
76298;SDS011;65236;42.332;23.550;2022-12-18T05:41:22;504.83;;;466.87;;
76298;SDS011;65236;42.332;23.550;2022-12-18T05:43:47;569.80;;;529.83;;
76298;SDS011;65236;42.332;23.550;2022-12-18T05:46:14;448.30;;;415.27;;
76298;SDS011;65236;42.332;23.550;2022-12-18T05:48:42;598.92;;;555.55;;
76298;SDS011;65236;42.332;23.550;2022-12-18T05:51:13;630.83;;;584.75;;
76298;SDS011;65236;42.332;23.550;2022-12-18T05:53:40;560.60;;;520.10;;
76298;SDS011;65236;42.332;23.550;2022-12-18T05:56:08;539.17;;;500.80;;
76298;SDS011;65236;42.332;23.550;2022-12-18T05:58:36;521.10;;;483.98;;
76298;SDS011;65236;42.332;23.550;2022-12-18T06:01:09;595.28;;;551.83;;
76298;SDS011;65236;42.332;23.550;2022-12-18T06:03:40;510.52;;;473.48;;
76298;SDS011;65236;42.332;23.550;2022-12-18T06:06:13;501.47;;;465.47;;
76298;SDS011;65236;42.332;23.550;2022-12-18T06:08:39;521.78;;;484.60;;
76298;SDS011;65236;42.332;23.550;2022-12-18T06:11:05;579.13;;;540.60;;
76298;SDS011;65236;42.332;23.550;2022-12-18T06:13:30;518.07;;;480.67;;
76298;SDS011;65236;42.332;23.550;2022-12-18T06:15:55;524.63;;;485.95;;
76298;SDS011;65236;42.332;23.550;2022-12-18T06:18:21;558.53;;;515.60;;
76298;SDS011;65236;42.332;23.550;2022-12-18T06:20:53;519.57;;;480.90;;
76298;SDS011;65236;42.332;23.550;2022-12-18T06:23:22;520.35;;;481.48;;
76298;SDS011;65236;42.332;23.550;2022-12-18T06:25:48;552.20;;;511.35;;
76298;SDS011;65236;42.332;23.550;2022-12-18T06:28:13;563.00;;;522.23;;
76298;SDS011;65236;42.332;23.550;2022-12-18T06:30:39;555.43;;;515.37;;
76298;SDS011;65236;42.332;23.550;2022-12-18T06:33:04;571.13;;;529.73;;
76298;SDS011;65236;42.332;23.550;2022-12-18T06:35:31;535.57;;;496.90;;
76298;SDS011;65236;42.332;23.550;2022-12-18T06:37:57;521.20;;;483.40;;
76298;SDS011;65236;42.332;23.550;2022-12-18T06:40:22;558.77;;;518.30;;
76298;SDS011;65236;42.332;23.550;2022-12-18T06:42:48;531.58;;;492.73;;
76298;SDS011;65236;42.332;23.550;2022-12-18T06:45:13;590.37;;;546.30;;
76298;SDS011;65236;42.332;23.550;2022-12-18T06:47:38;670.13;;;622.53;;
76298;SDS011;65236;42.332;23.550;2022-12-18T06:50:04;399.93;;;371.67;;
76298;SDS011;65236;42.332;23.550;2022-12-18T06:52:31;424.50;;;395.85;;
76298;SDS011;65236;42.332;23.550;2022-12-18T06:54:57;349.33;;;327.08;;
76298;SDS011;65236;42.332;23.550;2022-12-18T06:57:22;323.20;;;303.20;;
76298;SDS011;65236;42.332;23.550;2022-12-18T06:59:48;326.23;;;305.80;;
76298;SDS011;65236;42.332;23.550;2022-12-18T07:02:13;326.93;;;306.17;;
76298;SDS011;65236;42.332;23.550;2022-12-18T07:04:39;333.83;;;312.53;;
76298;SDS011;65236;42.332;23.550;2022-12-18T07:07:04;335.90;;;313.93;;
76298;SDS011;65236;42.332;23.550;2022-12-18T07:09:30;345.37;;;321.20;;
76298;SDS011;65236;42.332;23.550;2022-12-18T07:11:55;338.10;;;314.87;;
76298;SDS011;65236;42.332;23.550;2022-12-18T07:14:20;334.13;;;312.30;;
76298;SDS011;65236;42.332;23.550;2022-12-18T07:16:47;334.45;;;312.95;;
76298;SDS011;65236;42.332;23.550;2022-12-18T07:19:13;331.80;;;310.63;;
76298;SDS011;65236;42.332;23.550;2022-12-18T07:21:38;333.58;;;312.52;;
76298;SDS011;65236;42.332;23.550;2022-12-18T07:24:03;337.67;;;315.97;;
76298;SDS011;65236;42.332;23.550;2022-12-18T07:26:29;340.87;;;319.03;;
76298;SDS011;65236;42.332;23.550;2022-12-18T07:28:56;337.23;;;315.60;;
76298;SDS011;65236;42.332;23.550;2022-12-18T07:31:23;335.45;;;313.83;;
76298;SDS011;65236;42.332;23.550;2022-12-18T07:33:49;333.73;;;311.88;;
76298;SDS011;65236;42.332;23.550;2022-12-18T07:36:16;334.83;;;312.83;;
76298;SDS011;65236;42.332;23.550;2022-12-18T07:38:42;333.07;;;311.13;;
76298;SDS011;65236;42.332;23.550;2022-12-18T07:41:08;328.45;;;307.60;;
76298;SDS011;65236;42.332;23.550;2022-12-18T07:43:36;326.27;;;305.27;;
76298;SDS011;65236;42.332;23.550;2022-12-18T07:46:02;331.85;;;310.77;;
76298;SDS011;65236;42.332;23.550;2022-12-18T07:48:28;325.90;;;305.00;;
76298;SDS011;65236;42.332;23.550;2022-12-18T07:50:57;315.00;;;295.40;;
76298;SDS011;65236;42.332;23.550;2022-12-18T07:53:26;311.75;;;292.58;;
76298;SDS011;65236;42.332;23.550;2022-12-18T07:55:56;299.90;;;281.77;;
76298;SDS011;65236;42.332;23.550;2022-12-18T07:58:22;300.13;;;281.88;;
76298;SDS011;65236;42.332;23.550;2022-12-18T08:00:48;305.37;;;286.10;;
76298;SDS011;65236;42.332;23.550;2022-12-18T08:03:13;307.97;;;288.53;;
76298;SDS011;65236;42.332;23.550;2022-12-18T08:05:38;318.05;;;296.58;;
76298;SDS011;65236;42.332;23.550;2022-12-18T08:08:04;306.53;;;287.47;;
76298;SDS011;65236;42.332;23.550;2022-12-18T08:10:29;304.63;;;285.93;;
76298;SDS011;65236;42.332;23.550;2022-12-18T08:12:55;305.87;;;287.17;;
76298;SDS011;65236;42.332;23.550;2022-12-18T08:15:20;308.65;;;289.83;;
76298;SDS011;65236;42.332;23.550;2022-12-18T08:17:46;313.67;;;294.30;;
76298;SDS011;65236;42.332;23.550;2022-12-18T08:20:11;321.50;;;301.40;;
76298;SDS011;65236;42.332;23.550;2022-12-18T08:22:38;322.35;;;302.42;;
76298;SDS011;65236;42.332;23.550;2022-12-18T08:25:04;325.30;;;304.97;;
76298;SDS011;65236;42.332;23.550;2022-12-18T08:27:30;325.65;;;305.15;;
76298;SDS011;65236;42.332;23.550;2022-12-18T08:29:56;320.57;;;299.67;;
76298;SDS011;65236;42.332;23.550;2022-12-18T08:32:22;340.70;;;317.70;;
76298;SDS011;65236;42.332;23.550;2022-12-18T08:34:48;328.02;;;307.15;;
76298;SDS011;65236;42.332;23.550;2022-12-18T08:37:14;330.00;;;308.90;;
76298;SDS011;65236;42.332;23.550;2022-12-18T08:39:39;333.10;;;311.83;;
76298;SDS011;65236;42.332;23.550;2022-12-18T08:42:04;332.37;;;311.27;;
76298;SDS011;65236;42.332;23.550;2022-12-18T08:44:48;322.00;;;301.45;;
76298;SDS011;65236;42.332;23.550;2022-12-18T08:47:14;341.07;;;318.80;;
76298;SDS011;65236;42.332;23.550;2022-12-18T08:49:39;332.47;;;310.97;;
76298;SDS011;65236;42.332;23.550;2022-12-18T08:52:05;333.25;;;311.60;;
76298;SDS011;65236;42.332;23.550;2022-12-18T08:54:30;324.77;;;304.00;;
76298;SDS011;65236;42.332;23.550;2022-12-18T08:56:56;334.67;;;312.13;;
76298;SDS011;65236;42.332;23.550;2022-12-18T08:59:21;339.97;;;317.20;;
76298;SDS011;65236;42.332;23.550;2022-12-18T09:01:48;357.83;;;333.00;;
76298;SDS011;65236;42.332;23.550;2022-12-18T09:04:13;343.65;;;320.98;;
76298;SDS011;65236;42.332;23.550;2022-12-18T09:06:39;354.43;;;330.80;;
76298;SDS011;65236;42.332;23.550;2022-12-18T09:09:05;353.42;;;329.67;;
76298;SDS011;65236;42.332;23.550;2022-12-18T09:11:30;344.87;;;321.83;;
76298;SDS011;65236;42.332;23.550;2022-12-18T09:13:57;370.80;;;345.08;;
76298;SDS011;65236;42.332;23.550;2022-12-18T09:16:24;356.30;;;332.10;;
76298;SDS011;65236;42.332;23.550;2022-12-18T09:18:50;359.83;;;335.13;;
76298;SDS011;65236;42.332;23.550;2022-12-18T09:21:17;358.13;;;332.92;;
76298;SDS011;65236;42.332;23.550;2022-12-18T09:23:44;364.33;;;337.80;;
76298;SDS011;65236;42.332;23.550;2022-12-18T09:26:14;367.87;;;340.87;;
76298;SDS011;65236;42.332;23.550;2022-12-18T09:28:40;368.58;;;341.70;;
76298;SDS011;65236;42.332;23.550;2022-12-18T09:31:06;348.67;;;324.93;;
76298;SDS011;65236;42.332;23.550;2022-12-18T09:33:33;361.00;;;336.17;;
76298;SDS011;65236;42.332;23.550;2022-12-18T09:36:05;370.48;;;344.73;;
76298;SDS011;65236;42.332;23.550;2022-12-18T09:38:32;367.40;;;341.90;;
76298;SDS011;65236;42.332;23.550;2022-12-18T09:41:03;392.02;;;363.88;;
76298;SDS011;65236;42.332;23.550;2022-12-18T09:43:47;380.23;;;353.48;;
76298;SDS011;65236;42.332;23.550;2022-12-18T09:46:18;373.42;;;347.45;;
76298;SDS011;65236;42.332;23.550;2022-12-18T09:48:50;389.55;;;361.77;;
76298;SDS011;65236;42.332;23.550;2022-12-18T09:51:18;405.93;;;376.33;;
76298;SDS011;65236;42.332;23.550;2022-12-18T09:53:50;434.30;;;401.92;;
76298;SDS011;65236;42.332;23.550;2022-12-18T09:56:21;410.63;;;380.63;;
76298;SDS011;65236;42.332;23.550;2022-12-18T09:58:55;401.05;;;371.95;;
76298;SDS011;65236;42.332;23.550;2022-12-18T10:01:23;397.70;;;369.08;;
76298;SDS011;65236;42.332;23.550;2022-12-18T10:03:49;435.43;;;402.87;;
76298;SDS011;65236;42.332;23.550;2022-12-18T10:22:29;451.23;;;415.60;;
76298;SDS011;65236;42.332;23.550;2022-12-18T10:27:29;410.45;;;379.25;;
76298;SDS011;65236;42.332;23.550;2022-12-18T10:29:55;385.30;;;357.48;;
76298;SDS011;65236;42.332;23.550;2022-12-18T10:32:25;412.03;;;381.50;;
76298;SDS011;65236;42.332;23.550;2022-12-18T10:34:53;427.45;;;395.02;;
76298;SDS011;65236;42.332;23.550;2022-12-18T10:37:21;416.13;;;385.07;;
76298;SDS011;65236;42.332;23.550;2022-12-18T10:42:40;429.23;;;397.10;;
76298;SDS011;65236;42.332;23.550;2022-12-18T10:47:57;409.05;;;378.95;;
76298;SDS011;65236;42.332;23.550;2022-12-18T10:50:33;435.47;;;402.57;;
76298;SDS011;65236;42.332;23.550;2022-12-18T10:53:03;453.83;;;418.85;;
76298;SDS011;65236;42.332;23.550;2022-12-18T10:55:39;418.17;;;387.08;;
76298;SDS011;65236;42.332;23.550;2022-12-18T11:03:36;435.67;;;402.90;;
76298;SDS011;65236;42.332;23.550;2022-12-18T11:06:03;452.45;;;418.38;;
76298;SDS011;65236;42.332;23.550;2022-12-18T11:08:33;648.05;;;598.88;;
76298;SDS011;65236;42.332;23.550;2022-12-18T11:10:58;410.93;;;380.90;;
76298;SDS011;65236;42.332;23.550;2022-12-18T11:13:25;380.83;;;353.83;;
76298;SDS011;65236;42.332;23.550;2022-12-18T11:15:52;392.73;;;364.63;;
76298;SDS011;65236;42.332;23.550;2022-12-18T11:18:28;390.43;;;362.60;;
76298;SDS011;65236;42.332;23.550;2022-12-18T11:21:00;404.00;;;374.38;;
76298;SDS011;65236;42.332;23.550;2022-12-18T11:23:32;411.35;;;381.38;;
76298;SDS011;65236;42.332;23.550;2022-12-18T11:25:59;403.80;;;374.67;;
76298;SDS011;65236;42.332;23.550;2022-12-18T11:34:00;409.90;;;379.80;;
76298;SDS011;65236;42.332;23.550;2022-12-18T11:36:33;403.15;;;373.65;;
76298;SDS011;65236;42.332;23.550;2022-12-18T11:42:11;394.30;;;366.42;;
76298;SDS011;65236;42.332;23.550;2022-12-18T11:47:39;413.87;;;383.97;;
76298;SDS011;65236;42.332;23.550;2022-12-18T11:50:12;432.77;;;401.05;;
76298;SDS011;65236;42.332;23.550;2022-12-18T11:52:40;372.55;;;347.15;;
76298;SDS011;65236;42.332;23.550;2022-12-18T11:55:11;343.97;;;321.47;;
76298;SDS011;65236;42.332;23.550;2022-12-18T11:57:54;345.40;;;321.95;;
76298;SDS011;65236;42.332;23.550;2022-12-18T12:00:22;345.92;;;323.25;;
76298;SDS011;65236;42.332;23.550;2022-12-18T12:05:50;357.47;;;333.67;;
76298;SDS011;65236;42.332;23.550;2022-12-18T12:08:51;370.83;;;345.42;;
76298;SDS011;65236;42.332;23.550;2022-12-18T12:11:47;365.38;;;340.77;;
76298;SDS011;65236;42.332;23.550;2022-12-18T12:14:31;374.63;;;349.25;;
76298;SDS011;65236;42.332;23.550;2022-12-18T12:22:11;365.95;;;341.50;;
76298;SDS011;65236;42.332;23.550;2022-12-18T12:25:03;358.55;;;334.58;;
76298;SDS011;65236;42.332;23.550;2022-12-18T12:27:43;352.67;;;329.13;;
76298;SDS011;65236;42.332;23.550;2022-12-18T12:30:20;357.58;;;333.42;;
76298;SDS011;65236;42.332;23.550;2022-12-18T12:38:21;373.55;;;348.60;;
76298;SDS011;65236;42.332;23.550;2022-12-18T12:41:06;349.10;;;326.60;;
76298;SDS011;65236;42.332;23.550;2022-12-18T12:43:58;405.13;;;378.88;;
76298;SDS011;65236;42.332;23.550;2022-12-18T12:46:28;387.17;;;361.05;;
76298;SDS011;65236;42.332;23.550;2022-12-18T12:49:19;391.40;;;364.45;;
76298;SDS011;65236;42.332;23.550;2022-12-18T12:51:57;400.27;;;372.40;;
76298;SDS011;65236;42.332;23.550;2022-12-18T12:54:35;385.50;;;359.00;;
76298;SDS011;65236;42.332;23.550;2022-12-18T13:07:47;363.07;;;339.37;;
76298;SDS011;65236;42.332;23.550;2022-12-18T13:10:38;376.65;;;351.40;;
76298;SDS011;65236;42.332;23.550;2022-12-18T13:13:12;368.42;;;343.77;;
76298;SDS011;65236;42.332;23.550;2022-12-18T13:16:02;367.85;;;343.35;;
76298;SDS011;65236;42.332;23.550;2022-12-18T13:18:32;365.70;;;341.42;;
76298;SDS011;65236;42.332;23.550;2022-12-18T13:25:53;369.83;;;345.33;;
76298;SDS011;65236;42.332;23.550;2022-12-18T13:31:11;344.40;;;322.58;;
76298;SDS011;65236;42.332;23.550;2022-12-18T13:33:38;363.23;;;339.20;;
76298;SDS011;65236;42.332;23.550;2022-12-18T13:38:40;356.02;;;332.73;;
76298;SDS011;65236;42.332;23.550;2022-12-18T13:49:00;372.98;;;348.27;;
76298;SDS011;65236;42.332;23.550;2022-12-18T13:51:27;355.23;;;332.17;;
76298;SDS011;65236;42.332;23.550;2022-12-18T13:53:58;361.33;;;337.50;;
76298;SDS011;65236;42.332;23.550;2022-12-18T13:56:30;374.77;;;349.58;;
76298;SDS011;65236;42.332;23.550;2022-12-18T14:01:54;359.27;;;336.02;;
76298;SDS011;65236;42.332;23.550;2022-12-18T14:06:49;382.13;;;356.42;;
76298;SDS011;65236;42.332;23.550;2022-12-18T14:09:24;402.58;;;374.52;;
76298;SDS011;65236;42.332;23.550;2022-12-18T14:11:51;405.60;;;377.87;;
76298;SDS011;65236;42.332;23.550;2022-12-18T14:14:40;400.20;;;373.00;;
76298;SDS011;65236;42.332;23.550;2022-12-18T14:17:10;407.52;;;379.80;;
76298;SDS011;65236;42.332;23.550;2022-12-18T14:19:36;422.05;;;392.58;;
76298;SDS011;65236;42.332;23.550;2022-12-18T14:22:09;431.38;;;401.02;;
76298;SDS011;65236;42.332;23.550;2022-12-18T14:24:41;461.77;;;428.63;;
76298;SDS011;65236;42.332;23.550;2022-12-18T14:27:41;425.77;;;395.88;;
76298;SDS011;65236;42.332;23.550;2022-12-18T14:30:03;424.97;;;395.13;;
76298;SDS011;65236;42.332;23.550;2022-12-18T14:33:44;411.27;;;382.95;;
76298;SDS011;65236;42.332;23.550;2022-12-18T14:40:52;429.40;;;399.23;;
76298;SDS011;65236;42.332;23.550;2022-12-18T14:43:21;458.57;;;426.27;;
76298;SDS011;65236;42.332;23.550;2022-12-18T14:45:47;461.20;;;428.20;;
76298;SDS011;65236;42.332;23.550;2022-12-18T14:48:18;457.13;;;424.52;;
76298;SDS011;65236;42.332;23.550;2022-12-18T14:50:53;512.00;;;475.23;;
76298;SDS011;65236;42.332;23.550;2022-12-18T14:53:35;492.43;;;457.07;;
76298;SDS011;65236;42.332;23.550;2022-12-18T14:56:01;471.60;;;437.45;;
76298;SDS011;65236;42.332;23.550;2022-12-18T14:58:28;485.55;;;450.30;;
76298;SDS011;65236;42.332;23.550;2022-12-18T15:00:54;478.53;;;444.63;;
76298;SDS011;65236;42.332;23.550;2022-12-18T15:03:20;495.58;;;460.42;;
76298;SDS011;65236;42.332;23.550;2022-12-18T15:05:46;469.55;;;436.55;;
76298;SDS011;65236;42.332;23.550;2022-12-18T15:08:29;455.93;;;423.70;;
76298;SDS011;65236;42.332;23.550;2022-12-18T15:11:00;444.17;;;413.02;;
76298;SDS011;65236;42.332;23.550;2022-12-18T15:13:26;466.90;;;432.20;;
76298;SDS011;65236;42.332;23.550;2022-12-18T15:15:55;442.40;;;411.50;;
76298;SDS011;65236;42.332;23.550;2022-12-18T15:18:27;468.85;;;436.08;;
76298;SDS011;65236;42.332;23.550;2022-12-18T15:20:58;469.85;;;436.63;;
76298;SDS011;65236;42.332;23.550;2022-12-18T15:26:07;488.67;;;454.25;;
76298;SDS011;65236;42.332;23.550;2022-12-18T15:36:24;477.00;;;443.40;;
76298;SDS011;65236;42.332;23.550;2022-12-18T15:38:50;479.73;;;445.87;;
76298;SDS011;65236;42.332;23.550;2022-12-18T15:41:17;449.83;;;418.58;;
76298;SDS011;65236;42.332;23.550;2022-12-18T15:43:44;471.13;;;437.42;;
76298;SDS011;65236;42.332;23.550;2022-12-18T15:48:40;482.02;;;448.13;;
76298;SDS011;65236;42.332;23.550;2022-12-18T15:53:54;474.98;;;441.75;;
76298;SDS011;65236;42.332;23.550;2022-12-18T15:56:22;482.35;;;448.55;;
76298;SDS011;65236;42.332;23.550;2022-12-18T15:59:13;466.53;;;433.93;;
76298;SDS011;65236;42.332;23.550;2022-12-18T16:01:41;479.52;;;445.65;;
76298;SDS011;65236;42.332;23.550;2022-12-18T16:04:11;462.25;;;430.17;;
76298;SDS011;65236;42.332;23.550;2022-12-18T16:06:38;492.00;;;457.40;;